Robins Air Force Base
KWRB : now visible

Airfield :











YOU CAN JOIN US ON...

 
LOGIN :

Register | Disclaimer

   EN    FR    IT 

 









Legend :    VFR   Marginal VFR   IFR   Intensive IFR   Very Intensive IFR
Visi :
Ceiling :
>= 8 km
>= 3000ft
5 to 8 km
1000 to 3000 ft
1500m to 5 km
500 to 1000 ft
800 to 1500m
200 to 500 ft
< 800m
< 200 ft
Symbols :   Thunderstorms  Fog  Heavy snow  Heavy precipitations  Wind > 20 kt






- Airport Elevation : 294 ft


KWRB - Robins Air Force Base

CURRENT METAR :
  • 191655Z 15003KT 10SM SCT025 BKN040 BKN100 BKN250 29/24 A3000 RMK AO2A SLP159 T02860235

EXPIRED METARs :
  • 191555Z 00000KT 10SM FEW017 SCT022 BKN250 27/24 A3003 RMK AO2A SLP169 T02670237
  • 191522Z 15003KT 10SM FEW012 BKN020 OVC100 26/24 A3003 RMK AO2A SLP169
  • 191455Z 00000KT 10SM SCT010 BKN014 OVC030 25/24 A3002 RMK AO2A CIG 012 RWY15 SLP166 T02540240 52009

TAF AMD TAF KWRB
Valid from the 19 at 16:00 until the 20 at 22:00 UTC


191651Z 1916/2022 16006KT 9000 -SHRA VCTS SCT025CB BKN040 BKN100 BKN250 QNH3000INS
TEMPO 1917/1923 25015G25KT 4800 -TSRA BKN025CB
BECMG 2000/2001 VRB06KT 9999 NSW SCT015 BKN025 QNH2998INS
BECMG 2007/2008 VRB02KT 4800 BR BKN005 BKN015 OVC030 QNH3002INS
BECMG 2017/2018 04009KT 8000 -SHRA VCTS BKN030CB BKN060 QNH3009INS TX31/1921Z TN22/2011Z
KZTL FIR / North America



MET'MAP, your aeronautical weather chart ! - Copyright ORBIFLY December 2007 - Disclaimer

ORBIFLY MET'MAP TEAM :

Programming & Development : Alexandra Zaïnal
Original concept : Baudouin d'Aumeries
Technical & hardware support : Manuel Goepfert
Assistance : Marc-Olivier Méhu




SOURCES & CREDITS :

   NOAA       Earth
Advisory